Time,TemperatureF,DewpointF,PressureIn,WindDirection,WindDirectionDegrees,WindSpeedMPH,WindSpeedGustMPH,Humidity,HourlyPrecipIn,Conditions,Clouds,dailyrainin,SolarRadiationWatts/m^2,SoftwareType,DateUTC
2013-08-02 00:02:00,51.8,49.0,29.94,NE,47,0.0,0.0,91,0.00,,,0.00,0,weatherlink.com 1.10,2013-08-02 07:02:00,
2013-08-02 00:17:00,51.5,49.0,29.94,NE,47,0.0,0.0,92,0.00,,,0.00,0,weatherlink.com 1.10,2013-08-02 07:17:00,
2013-08-02 00:32:00,51.2,49.0,29.94,NE,47,0.0,0.0,92,0.00,,,0.00,0,weatherlink.com 1.10,2013-08-02 07:32:00,
2013-08-02 00:47:00,50.6,48.0,29.94,NE,47,0.0,0.0,92,0.00,,,0.00,0,weatherlink.com 1.10,2013-08-02 07:47:00,
2013-08-02 01:02:00,50.7,49.0,29.94,NE,47,0.0,0.0,93,0.00,,,0.00,0,weatherlink.com 1.10,2013-08-02 08:02:00,
2013-08-02 01:17:00,50.5,49.0,29.94,NE,47,0.0,0.0,93,0.00,,,0.00,0,weatherlink.com 1.10,2013-08-02 08:17:00,
2013-08-02 01:32:00,49.4,48.0,29.94,NE,47,0.0,0.0,93,0.00,,,0.00,0,weatherlink.com 1.10,2013-08-02 08:32:00,
2013-08-02 01:47:00,49.3,47.0,29.93,NE,47,0.0,0.0,93,0.00,,,0.00,0,weatherlink.com 1.10,2013-08-02 08:47:00,
2013-08-02 02:02:00,49.1,47.0,29.93,NE,47,0.0,0.0,93,0.00,,,0.00,0,weatherlink.com 1.10,2013-08-02 09:02:00,
2013-08-02 02:17:00,48.9,47.0,29.93,NE,47,0.0,1.0,94,0.00,,,0.00,0,weatherlink.com 1.10,2013-08-02 09:17:00,
2013-08-02 02:32:00,48.2,46.0,29.93,NE,47,0.0,0.0,93,0.00,,,0.00,0,weatherlink.com 1.10,2013-08-02 09:32:00,
2013-08-02 02:47:00,47.9,46.0,29.92,NE,47,0.0,1.0,94,0.00,,,0.00,0,weatherlink.com 1.10,2013-08-02 09:47:00,
2013-08-02 03:02:00,47.5,46.0,29.92,NE,47,0.0,0.0,94,0.00,,,0.00,0,weatherlink.com 1.10,2013-08-02 10:02:00,
2013-08-02 03:17:00,47.5,46.0,29.92,NE,47,0.0,0.0,94,0.00,,,0.00,0,weatherlink.com 1.10,2013-08-02 10:17:00,
2013-08-02 03:32:00,46.8,45.0,29.92,NE,47,0.0,0.0,94,0.00,,,0.00,0,weatherlink.com 1.10,2013-08-02 10:32:00,
2013-08-02 03:47:00,46.4,45.0,29.92,NE,47,0.0,0.0,94,0.00,,,0.00,0,weatherlink.com 1.10,2013-08-02 10:47:00,
2013-08-02 04:02:00,46.9,45.0,29.92,NE,47,0.0,0.0,94,0.00,,,0.00,0,weatherlink.com 1.10,2013-08-02 11:02:00,
2013-08-02 04:17:00,46.6,45.0,29.92,NE,47,0.0,0.0,94,0.00,,,0.00,0,weatherlink.com 1.10,2013-08-02 11:17:00,
2013-08-02 04:32:00,46.1,45.0,29.92,NE,47,0.0,0.0,94,0.00,,,0.00,0,weatherlink.com 1.10,2013-08-02 11:32:00,
2013-08-02 04:47:00,45.8,44.0,29.91,NE,47,0.0,0.0,94,0.00,,,0.00,0,weatherlink.com 1.10,2013-08-02 11:47:00,
2013-08-02 05:02:00,45.7,44.0,29.92,NE,47,0.0,0.0,94,0.00,,,0.00,0,weatherlink.com 1.10,2013-08-02 12:02:00,
2013-08-02 05:17:00,45.8,45.0,29.92,NE,47,0.0,0.0,95,0.00,,,0.00,0,weatherlink.com 1.10,2013-08-02 12:17:00,
2013-08-02 05:32:00,45.8,45.0,29.92,NE,47,0.0,0.0,95,0.00,,,0.00,0,weatherlink.com 1.10,2013-08-02 12:32:00,
2013-08-02 05:47:00,45.0,44.0,29.93,NE,47,0.0,0.0,95,0.00,,,0.00,0,weatherlink.com 1.10,2013-08-02 12:47:00,
2013-08-02 06:02:00,44.9,44.0,29.93,NE,47,0.0,0.0,95,0.00,,,0.00,0,weatherlink.com 1.10,2013-08-02 13:02:00,
2013-08-02 06:17:00,44.9,44.0,29.93,NE,47,0.0,0.0,95,0.00,,,0.00,0,weatherlink.com 1.10,2013-08-02 13:17:00,
2013-08-02 06:32:00,44.6,43.0,29.93,NE,47,0.0,0.0,95,0.00,,,0.00,9,weatherlink.com 1.10,2013-08-02 13:32:00,
2013-08-02 06:47:00,44.5,43.0,29.94,SSE,168,0.0,0.0,95,0.00,,,0.00,14,weatherlink.com 1.10,2013-08-02 13:47:00,
2013-08-02 07:03:00,45.0,44.0,29.94,SSE,168,0.0,0.0,95,0.00,,,0.00,19,weatherlink.com 1.10,2013-08-02 14:03:00,
2013-08-02 07:18:00,45.8,45.0,29.95,SSE,168,0.0,0.0,95,0.00,,,0.00,23,weatherlink.com 1.10,2013-08-02 14:18:00,
2013-08-02 07:33:00,46.6,45.0,29.95,SSE,168,0.0,0.0,95,0.00,,,0.00,165,weatherlink.com 1.10,2013-08-02 14:33:00,
2013-08-02 07:48:00,49.4,48.0,29.96,SSE,168,0.0,0.0,95,0.00,,,0.00,213,weatherlink.com 1.10,2013-08-02 14:48:00,
2013-08-02 08:03:00,52.1,51.0,29.96,SSE,168,0.0,0.0,95,0.00,,,0.00,251,weatherlink.com 1.10,2013-08-02 15:03:00,
2013-08-02 08:18:00,53.3,52.0,29.96,SSE,168,0.0,1.0,95,0.00,,,0.00,297,weatherlink.com 1.10,2013-08-02 15:18:00,
2013-08-02 08:33:00,55.5,54.0,29.97,SSE,167,0.0,0.0,95,0.00,,,0.00,341,weatherlink.com 1.10,2013-08-02 15:33:00,
2013-08-02 08:48:00,57.8,56.0,29.97,SSE,156,0.0,1.0,95,0.00,,,0.00,387,weatherlink.com 1.10,2013-08-02 15:48:00,
2013-08-02 09:03:00,60.3,58.0,29.97,SSE,156,0.0,1.0,91,0.00,,,0.00,425,weatherlink.com 1.10,2013-08-02 16:03:00,
2013-08-02 09:18:00,63.6,56.0,29.96,ESE,115,0.0,2.0,76,0.00,,,0.00,471,weatherlink.com 1.10,2013-08-02 16:18:00,
2013-08-02 09:33:00,64.3,55.0,29.96,NW,311,0.0,4.0,71,0.00,,,0.00,515,weatherlink.com 1.10,2013-08-02 16:33:00,
2013-08-02 09:48:00,65.9,55.0,29.96,East,87,0.0,2.0,68,0.00,,,0.00,559,weatherlink.com 1.10,2013-08-02 16:48:00,
2013-08-02 10:03:00,69.2,56.0,29.95,NE,45,0.0,3.0,64,0.00,,,0.00,599,weatherlink.com 1.10,2013-08-02 17:03:00,
2013-08-02 10:18:00,70.3,57.0,29.95,NNE,28,3.0,6.0,62,0.00,,,0.00,638,weatherlink.com 1.10,2013-08-02 17:18:00,
2013-08-02 10:33:00,72.0,57.0,29.95,NNE,18,1.0,8.0,59,0.00,,,0.00,680,weatherlink.com 1.10,2013-08-02 17:33:00,
2013-08-02 10:49:00,73.6,58.0,29.95,NE,47,4.0,6.0,58,0.00,,,0.00,714,weatherlink.com 1.10,2013-08-02 17:49:00,
2013-08-02 11:03:00,74.7,57.0,29.95,NNW,330,3.0,6.0,54,0.00,,,0.00,749,weatherlink.com 1.10,2013-08-02 18:03:00,
2013-08-02 11:19:00,76.5,58.0,29.94,North,5,4.0,9.0,53,0.00,,,0.00,775,weatherlink.com 1.10,2013-08-02 18:19:00,
2013-08-02 11:34:00,77.3,59.0,29.94,West,266,2.0,6.0,54,0.00,,,0.00,803,weatherlink.com 1.10,2013-08-02 18:34:00,
2013-08-02 11:49:00,76.9,57.0,29.94,ESE,103,0.0,7.0,51,0.00,,,0.00,826,weatherlink.com 1.10,2013-08-02 18:49:00,
2013-08-02 12:04:00,77.2,59.0,29.93,SE,130,0.0,9.0,53,0.00,,,0.00,847,weatherlink.com 1.10,2013-08-02 19:04:00,
2013-08-02 12:19:00,78.4,59.0,29.93,South,191,0.0,6.0,52,0.00,,,0.00,865,weatherlink.com 1.10,2013-08-02 19:19:00,
2013-08-02 12:34:00,79.2,58.0,29.93,SSE,167,0.0,9.0,49,0.00,,,0.00,879,weatherlink.com 1.10,2013-08-02 19:34:00,
2013-08-02 12:49:00,79.8,58.0,29.92,SE,137,8.0,9.0,48,0.00,,,0.00,889,weatherlink.com 1.10,2013-08-02 19:49:00,
2013-08-02 13:04:00,80.4,58.0,29.92,SW,215,0.0,10.0,46,0.00,,,0.00,898,weatherlink.com 1.10,2013-08-02 20:04:00,
2013-08-02 13:19:00,81.4,58.0,29.92,West,281,4.0,8.0,45,0.00,,,0.00,902,weatherlink.com 1.10,2013-08-02 20:19:00,
2013-08-02 13:34:00,81.7,56.0,29.91,ESE,123,2.0,6.0,41,0.00,,,0.00,900,weatherlink.com 1.10,2013-08-02 20:34:00,
2013-08-02 13:49:00,81.4,55.0,29.91,SW,234,8.0,10.0,41,0.00,,,0.00,898,weatherlink.com 1.10,2013-08-02 20:49:00,
2013-08-02 14:04:00,81.9,56.0,29.91,SSW,210,5.0,8.0,41,0.00,,,0.00,891,weatherlink.com 1.10,2013-08-02 21:04:00,
2013-08-02 14:19:00,81.0,55.0,29.90,SW,231,8.0,13.0,41,0.00,,,0.00,881,weatherlink.com 1.10,2013-08-02 21:19:00,
2013-08-02 14:34:00,82.2,55.0,29.90,SSE,159,9.0,10.0,39,0.00,,,0.00,868,weatherlink.com 1.10,2013-08-02 21:34:00,
2013-08-02 14:49:00,83.2,53.0,29.90,SE,142,0.0,9.0,35,0.00,,,0.00,853,weatherlink.com 1.10,2013-08-02 21:49:00,
2013-08-02 15:04:00,83.4,54.0,29.90,SW,225,0.0,11.0,36,0.00,,,0.00,830,weatherlink.com 1.10,2013-08-02 22:04:00,
2013-08-02 15:19:00,83.0,52.0,29.89,SSW,212,10.0,10.0,34,0.00,,,0.00,807,weatherlink.com 1.10,2013-08-02 22:19:00,
2013-08-02 15:34:00,82.9,53.0,29.88,SW,221,9.0,14.0,36,0.00,,,0.00,779,weatherlink.com 1.10,2013-08-02 22:34:00,
2013-08-02 15:49:00,84.0,54.0,29.88,WSW,242,0.0,9.0,36,0.00,,,0.00,751,weatherlink.com 1.10,2013-08-02 22:49:00,
2013-08-02 16:04:00,83.9,53.0,29.88,WSW,244,9.0,9.0,34,0.00,,,0.00,715,weatherlink.com 1.10,2013-08-02 23:04:00,
2013-08-02 16:19:00,83.9,51.0,29.87,SW,223,3.0,8.0,32,0.00,,,0.00,680,weatherlink.com 1.10,2013-08-02 23:19:00,
2013-08-02 16:34:00,84.3,52.0,29.87,South,186,0.0,10.0,33,0.00,,,0.00,636,weatherlink.com 1.10,2013-08-02 23:34:00,
2013-08-02 16:49:00,84.7,52.0,29.87,West,267,3.0,8.0,32,0.00,,,0.00,596,weatherlink.com 1.10,2013-08-02 23:49:00,
2013-08-02 17:04:00,84.5,51.0,29.87,SW,226,2.0,8.0,31,0.00,,,0.00,555,weatherlink.com 1.10,2013-08-03 00:04:00,
2013-08-02 17:20:00,84.4,52.0,29.86,SW,221,4.0,8.0,33,0.00,,,0.00,510,weatherlink.com 1.10,2013-08-03 00:20:00,
2013-08-02 17:35:00,84.3,53.0,29.86,WNW,295,1.0,7.0,34,0.00,,,0.00,466,weatherlink.com 1.10,2013-08-03 00:35:00,
2013-08-02 17:50:00,84.2,50.0,29.86,SW,227,4.0,7.0,30,0.00,,,0.00,420,weatherlink.com 1.10,2013-08-03 00:50:00,
2013-08-02 18:05:00,84.5,51.0,29.86,SW,214,5.0,5.0,31,0.00,,,0.00,374,weatherlink.com 1.10,2013-08-03 01:05:00,
2013-08-02 18:20:00,84.9,55.0,29.85,South,177,0.0,6.0,36,0.00,,,0.00,327,weatherlink.com 1.10,2013-08-03 01:20:00,
2013-08-02 18:35:00,81.6,56.0,29.85,SE,136,8.0,8.0,41,0.00,,,0.00,279,weatherlink.com 1.10,2013-08-03 01:35:00,
2013-08-02 18:50:00,78.2,56.0,29.85,SSE,165,3.0,9.0,46,0.00,,,0.00,230,weatherlink.com 1.10,2013-08-03 01:50:00,
2013-08-02 19:05:00,75.4,55.0,29.85,SSE,163,6.0,9.0,50,0.00,,,0.00,178,weatherlink.com 1.10,2013-08-03 02:05:00,
2013-08-02 19:20:00,73.4,55.0,29.85,SE,130,3.0,10.0,53,0.00,,,0.00,125,weatherlink.com 1.10,2013-08-03 02:20:00,
2013-08-02 19:35:00,71.2,55.0,29.85,SE,144,5.0,8.0,56,0.00,,,0.00,77,weatherlink.com 1.10,2013-08-03 02:35:00,
2013-08-02 19:50:00,69.3,54.0,29.86,SE,143,5.0,10.0,59,0.00,,,0.00,39,weatherlink.com 1.10,2013-08-03 02:50:00,
2013-08-02 20:05:00,67.5,54.0,29.86,SE,136,5.0,8.0,62,0.00,,,0.00,11,weatherlink.com 1.10,2013-08-03 03:05:00,
2013-08-02 20:20:00,65.2,53.0,29.87,SE,144,2.0,8.0,65,0.00,,,0.00,0,weatherlink.com 1.10,2013-08-03 03:20:00,
2013-08-02 20:35:00,63.8,53.0,29.87,SSE,159,1.0,5.0,68,0.00,,,0.00,0,weatherlink.com 1.10,2013-08-03 03:35:00,
2013-08-02 20:50:00,62.6,53.0,29.88,SSE,161,0.0,1.0,71,0.00,,,0.00,0,weatherlink.com 1.10,2013-08-03 03:50:00,
2013-08-02 21:05:00,61.1,53.0,29.88,SSE,161,0.0,0.0,74,0.00,,,0.00,0,weatherlink.com 1.10,2013-08-03 04:05:00,
2013-08-02 21:20:00,59.6,52.0,29.89,SSE,161,0.0,0.0,77,0.00,,,0.00,0,weatherlink.com 1.10,2013-08-03 04:20:00,
2013-08-02 21:35:00,58.0,52.0,29.89,SSE,161,0.0,0.0,79,0.00,,,0.00,0,weatherlink.com 1.10,2013-08-03 04:35:00,
2013-08-02 21:50:00,56.9,52.0,29.90,SSE,161,0.0,1.0,82,0.00,,,0.00,0,weatherlink.com 1.10,2013-08-03 04:50:00,
2013-08-02 22:05:00,56.0,51.0,29.90,SSE,161,0.0,0.0,83,0.00,,,0.00,0,weatherlink.com 1.10,2013-08-03 05:05:00,
2013-08-02 22:20:00,55.0,50.0,29.90,SSE,161,0.0,0.0,84,0.00,,,0.00,0,weatherlink.com 1.10,2013-08-03 05:20:00,
2013-08-02 22:35:00,53.9,50.0,29.90,SSE,161,0.0,0.0,85,0.00,,,0.00,0,weatherlink.com 1.10,2013-08-03 05:35:00,
2013-08-02 22:50:00,52.9,49.0,29.90,SSE,161,0.0,0.0,87,0.00,,,0.00,0,weatherlink.com 1.10,2013-08-03 05:50:00,
2013-08-02 23:05:00,52.5,49.0,29.90,SSE,161,0.0,1.0,89,0.00,,,0.00,0,weatherlink.com 1.10,2013-08-03 06:05:00,
2013-08-02 23:20:00,52.2,49.0,29.90,SSE,161,0.0,0.0,90,0.00,,,0.00,0,weatherlink.com 1.10,2013-08-03 06:20:00,
2013-08-02 23:35:00,51.4,49.0,29.90,SSE,161,0.0,0.0,90,0.00,,,0.00,0,weatherlink.com 1.10,2013-08-03 06:35:00,
2013-08-02 23:50:00,50.9,48.0,29.90,SSE,161,0.0,0.0,90,0.00,,,0.00,0,weatherlink.com 1.10,2013-08-03 06:50:00,